createdAt,value
2019-05-14T00:00:15.584Z,22.2
2019-05-14T00:01:05.892Z,22.2
2019-05-14T00:01:55.681Z,22.2
2019-05-14T00:02:46.018Z,22.2
2019-05-14T00:03:35.813Z,22.2
2019-05-14T00:04:26.148Z,22.2
2019-05-14T00:05:16.208Z,22.2
2019-05-14T00:06:05.983Z,22.2
2019-05-14T00:06:56.338Z,22.2
2019-05-14T00:07:46.122Z,22.2
2019-05-14T00:08:36.170Z,22.2
2019-05-14T00:09:26.512Z,22.2
2019-05-14T00:10:16.568Z,22.2
2019-05-14T00:11:06.630Z,22.2
2019-05-14T00:11:56.705Z,22.2
2019-05-14T00:12:46.531Z,22.2
2019-05-14T00:13:36.815Z,22.2
2019-05-14T00:14:43.681Z,22.2
2019-05-14T00:16:07.015Z,22.2
2019-05-14T00:16:57.055Z,22.2
2019-05-14T00:17:47.146Z,22.2
2019-05-14T00:18:36.679Z,22.2
2019-05-14T00:19:27.251Z,22.2
2019-05-14T00:20:17.308Z,22.3
2019-05-14T00:21:07.367Z,22.3
2019-05-14T00:21:57.442Z,22.2
2019-05-14T00:22:47.223Z,22.2
2019-05-14T00:23:37.282Z,22.2
2019-05-14T00:24:27.620Z,22.3
2019-05-14T00:25:17.447Z,22.3
2019-05-14T00:26:07.749Z,22.3
2019-05-14T00:26:57.522Z,22.2
2019-05-14T00:27:47.604Z,22.3
2019-05-14T00:28:37.644Z,22.2
2019-05-14T00:29:27.986Z,22.3
2019-05-14T00:30:18.061Z,22.2
2019-05-14T00:31:08.111Z,22.2
2019-05-14T00:31:58.177Z,22.2
2019-05-14T00:32:48.242Z,22.3
2019-05-14T00:33:38.029Z,22.2
2019-05-14T00:34:28.361Z,22.3
2019-05-14T00:35:18.139Z,22.3
2019-05-14T00:36:08.484Z,22.2
2019-05-14T00:36:57.996Z,22.3
2019-05-14T00:37:48.331Z,22.3
2019-05-14T00:38:38.405Z,22.3
2019-05-14T00:39:28.723Z,22.3
2019-05-14T00:40:18.518Z,22.3
2019-05-14T00:41:10.974Z,22.3
2019-05-14T00:41:58.919Z,22.3
2019-05-14T00:42:48.976Z,22.3
2019-05-14T00:43:41.429Z,22.3
2019-05-14T00:44:28.823Z,22.3
2019-05-14T00:45:19.171Z,22.3
2019-05-14T00:46:09.226Z,22.3
2019-05-14T00:46:58.731Z,22.3
2019-05-14T00:47:49.063Z,22.3
2019-05-14T00:48:39.123Z,22.3
2019-05-14T00:49:31.529Z,22.3
2019-05-14T00:50:21.442Z,22.3
2019-05-14T00:51:12.074Z,22.3
2019-05-14T00:51:59.371Z,22.3
2019-05-14T00:52:52.113Z,22.3
2019-05-14T00:53:39.510Z,22.3
2019-05-14T00:54:32.011Z,22.3
2019-05-14T00:55:22.093Z,22.3
2019-05-14T00:56:11.965Z,22.3
2019-05-14T00:57:02.225Z,22.3
2019-05-14T00:57:52.782Z,22.3
2019-05-14T00:58:42.455Z,22.3
2019-05-14T00:59:32.628Z,22.3
2019-05-14T01:00:22.484Z,22.3
2019-05-14T01:01:12.790Z,22.3
2019-05-14T01:02:03.898Z,22.3
2019-05-14T01:02:52.450Z,22.3
2019-05-14T01:03:42.565Z,22.3
2019-05-14T01:04:32.496Z,22.3
2019-05-14T01:05:22.620Z,22.3
2019-05-14T01:06:12.398Z,22.3
2019-05-14T01:07:02.357Z,22.3
2019-05-14T01:07:52.429Z,22.3
2019-05-14T01:08:42.444Z,22.3
2019-05-14T01:09:32.214Z,22.3
2019-05-14T01:10:23.209Z,22.3
2019-05-14T01:11:12.636Z,22.3
2019-05-14T01:12:02.609Z,22.3
2019-05-14T01:12:52.874Z,22.3
2019-05-14T01:13:42.439Z,22.3
2019-05-14T01:14:32.750Z,22.3
2019-05-14T01:15:22.510Z,22.3
2019-05-14T01:16:13.117Z,22.3
2019-05-14T01:17:02.859Z,22.3
2019-05-14T01:17:52.631Z,22.3
2019-05-14T01:18:42.519Z,22.3
2019-05-14T01:19:32.684Z,22.3
2019-05-14T01:20:22.364Z,22.3
2019-05-14T01:21:12.759Z,22.3
2019-05-14T01:22:02.481Z,22.3
2019-05-14T01:22:52.643Z,22.3
2019-05-14T01:23:42.649Z,22.3
2019-05-14T01:24:33.053Z,22.3
2019-05-14T01:25:24.779Z,22.3
2019-05-14T01:26:12.628Z,22.3
2019-05-14T01:27:02.711Z,22.3
2019-05-14T01:27:52.856Z,22.3
2019-05-14T01:28:42.726Z,22.3
2019-05-14T01:29:32.653Z,22.3
2019-05-14T01:30:22.503Z,22.3
2019-05-14T01:31:15.648Z,22.3
2019-05-14T01:32:02.616Z,22.3
2019-05-14T01:32:52.141Z,22.3
2019-05-14T01:33:42.453Z,22.3
2019-05-14T01:34:33.558Z,22.3
2019-05-14T01:35:23.024Z,22.3
2019-05-14T01:36:13.422Z,22.3
2019-05-14T01:37:03.584Z,22.3
2019-05-14T01:37:53.104Z,22.3
2019-05-14T01:38:42.833Z,22.3
2019-05-14T01:39:33.170Z,22.3
2019-05-14T01:40:23.242Z,22.3
2019-05-14T01:41:13.299Z,22.3
2019-05-14T01:42:03.795Z,22.3
2019-05-14T01:42:53.173Z,22.3
2019-05-14T01:43:43.475Z,22.3
2019-05-14T01:44:33.535Z,22.3
2019-05-14T01:45:32.051Z,22.3
2019-05-14T01:46:13.663Z,22.3
2019-05-14T01:47:03.718Z,22.3
2019-05-14T01:47:53.794Z,22.3
2019-05-14T01:48:43.575Z,22.3
2019-05-14T01:49:33.915Z,22.3
2019-05-14T01:50:23.685Z,22.3
2019-05-14T01:51:14.052Z,22.3
2019-05-14T01:52:04.112Z,22.3
2019-05-14T01:52:54.149Z,22.3
2019-05-14T01:53:44.209Z,22.3
2019-05-14T01:54:33.999Z,22.3
2019-05-14T01:55:24.336Z,22.3
2019-05-14T01:56:14.405Z,22.3
2019-05-14T01:57:04.449Z,22.3
2019-05-14T01:57:54.517Z,22.3
2019-05-14T01:58:44.599Z,22.3
2019-05-14T01:59:34.642Z,22.3
2019-05-14T02:00:24.702Z,22.3
2019-05-14T02:01:14.762Z,22.3
2019-05-14T02:02:04.836Z,22.3
2019-05-14T02:02:54.882Z,22.3
2019-05-14T02:03:44.957Z,22.3
2019-05-14T02:04:34.741Z,22.3
2019-05-14T02:05:24.796Z,22.3
2019-05-14T02:06:14.881Z,22.3
2019-05-14T02:07:04.931Z,22.3
2019-05-14T02:07:55.256Z,22.3
2019-05-14T02:08:45.326Z,22.4
2019-05-14T02:09:35.098Z,22.3
2019-05-14T02:10:25.454Z,22.3
2019-05-14T02:11:15.538Z,22.3
2019-05-14T02:12:05.285Z,22.3
2019-05-14T02:12:55.361Z,22.3
2019-05-14T02:13:48.889Z,22.3
2019-05-14T02:14:35.525Z,22.3
2019-05-14T02:15:43.079Z,22.3
2019-05-14T02:17:05.939Z,22.3
2019-05-14T02:17:55.991Z,22.3
2019-05-14T02:18:45.786Z,22.3
2019-05-14T02:19:36.158Z,22.3
2019-05-14T02:20:26.185Z,22.3
2019-05-14T02:21:15.973Z,22.3
2019-05-14T02:22:06.034Z,22.3
2019-05-14T02:22:56.103Z,22.3
2019-05-14T02:23:46.165Z,22.4
2019-05-14T02:24:36.213Z,22.3
2019-05-14T02:25:26.275Z,22.3
2019-05-14T02:26:16.068Z,22.3
2019-05-14T02:27:06.403Z,22.3
2019-05-14T02:27:56.742Z,22.3
2019-05-14T02:28:46.522Z,22.4
2019-05-14T02:29:36.864Z,22.3
2019-05-14T02:31:02.719Z,22.4
2019-05-14T02:32:11.142Z,22.3
2019-05-14T02:33:00.162Z,22.3
2019-05-14T02:33:50.876Z,22.4
2019-05-14T02:34:41.233Z,22.4
2019-05-14T02:35:30.696Z,22.3
2019-05-14T02:36:20.146Z,22.4
2019-05-14T02:37:10.068Z,22.4
2019-05-14T02:38:00.220Z,22.4
2019-05-14T02:38:50.461Z,22.4
2019-05-14T02:39:41.559Z,22.4
2019-05-14T02:40:30.103Z,22.4
2019-05-14T02:41:20.498Z,22.4
2019-05-14T02:42:10.755Z,22.4
2019-05-14T02:43:00.370Z,22.4
2019-05-14T02:43:51.171Z,22.4
2019-05-14T02:44:41.725Z,22.4
2019-05-14T02:45:30.937Z,22.4
2019-05-14T02:46:22.801Z,22.4
2019-05-14T02:47:11.166Z,22.4
2019-05-14T02:48:01.550Z,22.4
2019-05-14T02:48:50.055Z,22.4
2019-05-14T02:49:40.780Z,22.4
2019-05-14T02:50:30.559Z,22.4
2019-05-14T02:51:21.035Z,22.4
2019-05-14T02:52:11.254Z,22.4
2019-05-14T02:53:00.958Z,22.4
2019-05-14T02:53:50.921Z,22.4
2019-05-14T02:54:41.638Z,22.4
2019-05-14T02:55:30.737Z,22.4
2019-05-14T02:56:21.599Z,22.4
2019-05-14T02:57:11.531Z,22.4
2019-05-14T02:58:00.919Z,22.4
2019-05-14T02:58:50.977Z,22.4
2019-05-14T02:59:40.700Z,22.4
2019-05-14T03:00:31.234Z,22.4
2019-05-14T03:01:20.829Z,22.4
2019-05-14T03:02:11.253Z,22.4
2019-05-14T03:03:00.995Z,22.4
2019-05-14T03:06:29.986Z,22.4
2019-05-14T03:07:20.240Z,22.4
2019-05-14T03:08:10.138Z,22.4
2019-05-14T03:09:01.071Z,22.4
2019-05-14T03:09:51.217Z,22.4
2019-05-14T03:10:41.343Z,22.4
2019-05-14T03:11:30.896Z,22.4
2019-05-14T03:12:20.313Z,22.4
2019-05-14T03:13:10.728Z,22.4
2019-05-14T03:14:00.964Z,22.4
2019-05-14T03:14:51.140Z,22.4
2019-05-14T03:15:40.321Z,22.4
2019-05-14T03:16:40.018Z,22.4
2019-05-14T03:17:21.124Z,22.4
2019-05-14T03:18:10.501Z,22.4
2019-05-14T03:19:00.745Z,22.4
2019-05-14T03:19:50.865Z,22.4
2019-05-14T03:20:40.438Z,22.4
2019-05-14T03:21:31.529Z,22.4
2019-05-14T03:23:02.941Z,22.4
2019-05-14T03:24:20.880Z,22.4
2019-05-14T03:25:11.087Z,22.4
2019-05-14T03:26:01.652Z,22.4
2019-05-14T03:26:51.301Z,22.4
2019-05-14T03:27:41.426Z,22.4
2019-05-14T03:29:20.682Z,22.4
2019-05-14T03:30:14.302Z,22.4
2019-05-14T03:31:04.859Z,22.4
2019-05-14T03:31:54.246Z,22.4
2019-05-14T03:32:43.972Z,22.4
2019-05-14T03:33:35.045Z,22.4
2019-05-14T03:34:23.527Z,22.4
2019-05-14T03:35:15.477Z,22.4
2019-05-14T03:37:31.766Z,22.4
2019-05-14T03:38:20.738Z,22.4
2019-05-14T03:39:11.537Z,22.4
2019-05-14T03:40:00.529Z,22.4
2019-05-14T03:40:50.559Z,22.4
2019-05-14T03:41:40.761Z,22.4
2019-05-14T03:42:30.288Z,22.4
2019-05-14T03:43:20.931Z,22.4
2019-05-14T03:44:10.994Z,22.4
2019-05-14T03:45:00.794Z,22.4
2019-05-14T03:45:50.662Z,22.4
2019-05-14T03:47:00.320Z,22.4
2019-05-14T03:48:20.199Z,22.4
2019-05-14T03:49:10.398Z,22.4
2019-05-14T03:49:59.945Z,22.4
2019-05-14T03:50:50.650Z,22.4
2019-05-14T03:51:40.499Z,22.4
2019-05-14T03:52:30.361Z,22.4
2019-05-14T03:53:19.688Z,22.4
2019-05-14T03:54:13.723Z,22.4
2019-05-14T03:55:05.623Z,22.4
2019-05-14T03:55:51.408Z,22.4
2019-05-14T03:56:40.225Z,22.4
2019-05-14T03:57:30.051Z,22.4
2019-05-14T03:58:22.419Z,22.4
2019-05-14T03:59:10.757Z,22.4
2019-05-14T04:00:00.964Z,22.4
2019-05-14T04:00:51.727Z,22.4
2019-05-14T04:01:41.199Z,22.4
2019-05-14T04:02:30.567Z,22.4
2019-05-14T04:03:20.917Z,22.4
2019-05-14T04:04:11.289Z,22.4
2019-05-14T04:05:00.845Z,22.4
2019-05-14T04:05:50.876Z,22.4
2019-05-14T04:06:41.385Z,22.4
2019-05-14T04:07:31.476Z,22.4
2019-05-14T04:08:22.581Z,22.4
2019-05-14T04:09:10.813Z,22.4
2019-05-14T04:10:00.870Z,22.4
2019-05-14T04:10:55.140Z,22.4
2019-05-14T04:11:40.913Z,22.4
2019-05-14T04:12:30.642Z,22.4
2019-05-14T04:13:20.949Z,22.4
2019-05-14T04:14:10.516Z,22.4
2019-05-14T04:15:00.844Z,22.4
2019-05-14T04:15:51.026Z,22.4
2019-05-14T04:17:09.085Z,22.4
2019-05-14T04:18:41.543Z,22.4
2019-05-14T04:19:30.700Z,22.4
2019-05-14T04:20:20.759Z,22.4
2019-05-14T04:21:11.186Z,22.4
2019-05-14T04:22:00.978Z,22.4
2019-05-14T04:22:50.870Z,22.4
2019-05-14T04:23:40.871Z,22.4
2019-05-14T04:24:30.391Z,22.4
2019-05-14T04:25:20.583Z,22.4
2019-05-14T04:26:10.547Z,22.4
2019-05-14T04:27:13.610Z,22.4
2019-05-14T04:27:50.292Z,22.4
2019-05-14T04:28:40.490Z,22.4
2019-05-14T04:29:31.468Z,22.4
2019-05-14T04:30:25.250Z,22.4
2019-05-14T04:31:10.960Z,22.4
2019-05-14T04:32:01.312Z,22.4
2019-05-14T04:32:51.805Z,22.4
2019-05-14T04:33:40.510Z,22.4
2019-05-14T04:34:30.941Z,22.4
2019-05-14T04:35:21.008Z,22.4
2019-05-14T04:36:11.137Z,22.4
2019-05-14T04:37:00.619Z,22.4
2019-05-14T04:37:50.820Z,22.4
2019-05-14T04:38:42.106Z,22.4
2019-05-14T04:39:31.635Z,22.4
2019-05-14T04:40:20.526Z,22.4
2019-05-14T04:41:11.616Z,22.4
2019-05-14T04:42:01.198Z,22.4
2019-05-14T04:42:51.666Z,22.4
2019-05-14T04:43:41.508Z,22.4
2019-05-14T04:44:30.954Z,22.4
2019-05-14T04:45:20.913Z,22.4
2019-05-14T04:46:11.935Z,22.4
2019-05-14T04:47:37.312Z,22.4
2019-05-14T04:48:45.036Z,22.4
2019-05-14T04:49:34.501Z,22.4
2019-05-14T04:50:30.104Z,22.4
2019-05-14T04:51:14.330Z,22.4
2019-05-14T04:52:04.686Z,22.4
2019-05-14T04:52:54.737Z,22.4
2019-05-14T04:53:44.513Z,22.4
2019-05-14T04:54:34.591Z,22.4
2019-05-14T04:55:24.642Z,22.4
2019-05-14T04:56:14.979Z,22.4
2019-05-14T04:57:04.772Z,22.4
2019-05-14T04:57:54.832Z,22.4
2019-05-14T04:58:45.196Z,22.4
2019-05-14T04:59:35.251Z,22.4
2019-05-14T05:00:25.285Z,22.4
2019-05-14T05:01:15.355Z,22.4
2019-05-14T05:02:05.126Z,22.4
2019-05-14T05:02:55.479Z,22.4
2019-05-14T05:03:45.538Z,22.4
2019-05-14T05:04:35.596Z,22.4
2019-05-14T05:05:25.670Z,22.4
2019-05-14T05:06:15.457Z,22.4
2019-05-14T05:07:05.765Z,22.4
2019-05-14T05:07:55.835Z,22.4
2019-05-14T05:08:45.909Z,22.4
2019-05-14T05:09:39.326Z,22.4
2019-05-14T05:10:26.015Z,22.4
2019-05-14T05:11:21.950Z,22.4
2019-05-14T05:12:09.432Z,22.4
2019-05-14T05:12:58.793Z,22.4
2019-05-14T05:13:49.207Z,22.4
2019-05-14T05:14:39.353Z,22.4
2019-05-14T05:15:28.776Z,22.4
2019-05-14T05:16:19.675Z,22.4
2019-05-14T05:17:09.577Z,22.4
2019-05-14T05:17:59.647Z,22.4
2019-05-14T05:18:50.130Z,22.4
2019-05-14T05:19:44.209Z,22.4
2019-05-14T05:20:29.602Z,22.4
2019-05-14T05:21:18.613Z,22.4
2019-05-14T05:22:09.062Z,22.4
2019-05-14T05:22:58.918Z,22.4
2019-05-14T05:23:46.458Z,22.4
2019-05-14T05:24:39.156Z,22.4
2019-05-14T05:25:29.456Z,22.4
2019-05-14T05:26:19.468Z,22.4
2019-05-14T05:27:09.751Z,22.4
2019-05-14T05:28:00.149Z,22.4
2019-05-14T05:29:10.113Z,22.4
2019-05-14T05:30:29.949Z,22.4
2019-05-14T05:31:19.596Z,22.4
2019-05-14T05:32:09.702Z,22.4
2019-05-14T05:33:00.194Z,22.4
2019-05-14T05:33:49.826Z,22.4
2019-05-14T05:34:39.965Z,22.4
2019-05-14T05:35:29.679Z,22.4
2019-05-14T05:36:19.281Z,22.4
2019-05-14T05:37:09.403Z,22.4
2019-05-14T05:37:59.113Z,22.4
2019-05-14T05:38:50.225Z,22.4
2019-05-14T05:39:39.423Z,22.4
2019-05-14T05:40:29.843Z,22.4
2019-05-14T05:41:20.242Z,22.4
2019-05-14T05:42:10.310Z,22.4
2019-05-14T05:42:59.180Z,22.4
2019-05-14T05:43:49.213Z,22.4
2019-05-14T05:44:40.485Z,22.4
2019-05-14T05:45:30.077Z,22.4
2019-05-14T05:46:20.012Z,22.4
2019-05-14T05:47:09.818Z,22.4
2019-05-14T05:48:02.508Z,22.4
2019-05-14T05:48:49.361Z,22.4
2019-05-14T05:49:39.311Z,22.4
2019-05-14T05:50:29.777Z,22.4
2019-05-14T05:51:19.860Z,22.4
2019-05-14T05:52:09.708Z,22.4
2019-05-14T05:52:59.340Z,22.4
2019-05-14T05:53:49.607Z,22.4
2019-05-14T05:54:39.342Z,22.4
2019-05-14T05:55:29.923Z,22.4
2019-05-14T05:56:19.927Z,22.4
2019-05-14T05:57:10.047Z,22.4
2019-05-14T05:57:59.831Z,22.4
2019-05-14T05:58:50.161Z,22.4
2019-05-14T05:59:40.735Z,22.4
2019-05-14T06:00:30.929Z,22.4
2019-05-14T06:01:20.672Z,22.4
2019-05-14T06:02:10.447Z,22.4
2019-05-14T06:04:30.074Z,22.4
2019-05-14T06:05:19.437Z,22.4
2019-05-14T06:06:14.631Z,22.4
2019-05-14T06:07:03.275Z,22.4
2019-05-14T06:07:49.203Z,22.4
2019-05-14T06:08:39.669Z,22.4
2019-05-14T06:09:29.801Z,22.4
2019-05-14T06:10:19.821Z,22.3
2019-05-14T06:11:09.758Z,22.4
2019-05-14T06:12:00.371Z,22.4
2019-05-14T06:12:50.226Z,22.4
2019-05-14T06:13:40.458Z,22.4
2019-05-14T06:14:30.341Z,22.4
2019-05-14T06:15:20.268Z,22.4
2019-05-14T06:16:10.433Z,22.4
2019-05-14T06:17:00.035Z,22.4
2019-05-14T06:17:50.408Z,22.4
2019-05-14T06:18:40.648Z,22.4
2019-05-14T06:19:30.328Z,22.4
2019-05-14T06:20:20.118Z,22.4
2019-05-14T06:21:10.458Z,22.4
2019-05-14T06:22:03.952Z,22.4
2019-05-14T06:22:50.306Z,22.4
2019-05-14T06:23:40.384Z,22.4
2019-05-14T06:24:30.705Z,22.4
2019-05-14T06:25:21.771Z,22.4
2019-05-14T06:26:12.818Z,22.4
2019-05-14T06:27:00.882Z,22.3
2019-05-14T06:27:50.956Z,22.4
2019-05-14T06:28:42.170Z,22.4
2019-05-14T06:29:31.079Z,22.4
2019-05-14T06:30:21.133Z,22.4
2019-05-14T06:31:11.363Z,22.4
2019-05-14T06:32:01.257Z,22.4
2019-05-14T06:32:51.325Z,22.3
2019-05-14T06:33:41.369Z,22.4
2019-05-14T06:34:31.442Z,22.3
2019-05-14T06:35:21.515Z,22.4
2019-05-14T06:36:15.438Z,22.4
2019-05-14T06:37:01.354Z,22.4
2019-05-14T06:37:51.685Z,22.4
2019-05-14T06:38:41.788Z,22.4
2019-05-14T06:39:31.819Z,22.4
2019-05-14T06:40:21.939Z,22.4
2019-05-14T06:41:11.948Z,22.4
2019-05-14T06:42:01.987Z,22.4
2019-05-14T06:42:52.204Z,22.4
2019-05-14T06:43:42.120Z,22.4
2019-05-14T06:44:31.891Z,22.4
2019-05-14T06:45:22.265Z,22.4
2019-05-14T06:46:12.322Z,22.4
2019-05-14T06:47:02.102Z,22.4
2019-05-14T06:47:52.453Z,22.4
2019-05-14T06:48:42.497Z,22.4
2019-05-14T06:49:32.577Z,22.3
2019-05-14T06:50:22.663Z,22.4
2019-05-14T06:51:12.694Z,22.3
2019-05-14T06:52:02.747Z,22.4
2019-05-14T06:52:52.805Z,22.4
2019-05-14T06:53:42.863Z,22.3
2019-05-14T06:54:32.916Z,22.4
2019-05-14T06:55:23.041Z,22.4
2019-05-14T06:56:13.047Z,22.4
2019-05-14T06:57:02.569Z,22.4
2019-05-14T06:57:53.165Z,22.4
2019-05-14T06:58:43.239Z,22.4
2019-05-14T06:59:33.286Z,22.4
2019-05-14T07:00:23.074Z,22.4
2019-05-14T07:01:13.418Z,22.4
2019-05-14T07:02:03.483Z,22.4
2019-05-14T07:04:29.998Z,22.4
2019-05-14T07:05:19.590Z,22.4
2019-05-14T07:06:10.185Z,22.4
2019-05-14T07:06:59.851Z,22.4
2019-05-14T07:07:50.184Z,22.4
2019-05-14T07:08:40.380Z,22.4
2019-05-14T07:09:29.791Z,22.4
2019-05-14T07:10:20.727Z,22.4
2019-05-14T07:11:09.800Z,22.4
2019-05-14T07:11:59.745Z,22.4
2019-05-14T07:12:50.955Z,22.2
2019-05-14T07:13:39.857Z,21.3
2019-05-14T07:14:29.912Z,21.3
2019-05-14T07:15:19.963Z,20.8
2019-05-14T07:16:10.215Z,20.6
2019-05-14T07:16:59.838Z,20.6
2019-05-14T07:17:50.177Z,20.4
2019-05-14T07:18:54.949Z,20.4
2019-05-14T07:19:30.431Z,20.3
2019-05-14T07:20:20.353Z,20.3
2019-05-14T07:21:10.410Z,20.4
2019-05-14T07:22:00.472Z,20.6
2019-05-14T07:22:50.532Z,20.7
2019-05-14T07:23:40.329Z,20.8
2019-05-14T07:24:30.388Z,20.9
2019-05-14T07:25:20.712Z,20.9
2019-05-14T07:26:10.789Z,21
2019-05-14T07:27:00.847Z,21.1
2019-05-14T07:28:43.605Z,21.2
2019-05-14T07:29:31.011Z,21.2
2019-05-14T07:30:21.087Z,21.3
2019-05-14T07:31:11.143Z,21.3
2019-05-14T07:32:01.214Z,21.3
2019-05-14T07:32:51.277Z,21.3
2019-05-14T07:33:41.351Z,21.4
2019-05-14T07:34:31.386Z,21.4
2019-05-14T07:35:21.176Z,21.4
2019-05-14T07:36:11.252Z,21.4
2019-05-14T07:37:01.579Z,21.4
2019-05-14T07:37:51.369Z,21.4
2019-05-14T07:38:41.714Z,21.5
2019-05-14T07:39:31.806Z,21.5
2019-05-14T07:40:21.887Z,21.5
2019-05-14T07:41:11.896Z,21.6
2019-05-14T07:42:01.954Z,21.6
2019-05-14T07:42:52.028Z,21.6
2019-05-14T07:43:42.068Z,21.6
2019-05-14T07:44:32.129Z,21.6
2019-05-14T07:45:21.638Z,21.6
2019-05-14T07:46:12.248Z,21.6
2019-05-14T07:47:02.320Z,21.6
2019-05-14T07:47:52.368Z,21.6
2019-05-14T07:48:42.448Z,21.6
2019-05-14T07:49:32.489Z,21.6
2019-05-14T07:50:22.560Z,21.7
2019-05-14T07:51:12.431Z,21.7
2019-05-14T07:52:02.695Z,21.7
2019-05-14T07:52:52.772Z,21.7
2019-05-14T07:53:43.633Z,21.7
2019-05-14T07:54:32.330Z,21.8
2019-05-14T07:55:22.928Z,21.8
2019-05-14T07:56:12.993Z,21.8
2019-05-14T07:57:03.079Z,21.8
2019-05-14T07:57:52.850Z,21.8
2019-05-14T07:58:43.180Z,21.8
2019-05-14T07:59:33.023Z,21.8
2019-05-14T08:00:23.303Z,21.8
2019-05-14T08:01:13.357Z,21.8
2019-05-14T08:02:03.425Z,21.8
2019-05-14T08:02:53.485Z,21.8
2019-05-14T08:03:43.555Z,21.8
2019-05-14T08:04:33.605Z,21.8
2019-05-14T08:05:23.389Z,21.8
2019-05-14T08:06:13.189Z,21.8
2019-05-14T08:07:03.790Z,21.8
2019-05-14T08:07:53.852Z,21.8
2019-05-14T08:08:43.914Z,21.8
2019-05-14T08:09:33.694Z,21.8
2019-05-14T08:10:24.052Z,21.8
2019-05-14T08:11:14.109Z,21.8
2019-05-14T08:12:03.889Z,21.8
2019-05-14T08:12:54.225Z,21.8
2019-05-14T08:13:44.282Z,21.9
2019-05-14T08:15:17.581Z,21.8
2019-05-14T08:16:20.084Z,21.9
2019-05-14T08:17:10.138Z,21.8
2019-05-14T08:18:00.455Z,21.8
2019-05-14T08:18:49.971Z,21.9
2019-05-14T08:19:40.629Z,21.9
2019-05-14T08:20:30.639Z,21.9
2019-05-14T08:21:20.796Z,21.9
2019-05-14T08:22:10.770Z,21.9
2019-05-14T08:23:00.835Z,21.9
2019-05-14T08:23:50.884Z,21.9
2019-05-14T08:24:40.406Z,21.9
2019-05-14T08:25:31.001Z,21.9
2019-05-14T08:26:20.788Z,21.9
2019-05-14T08:27:10.852Z,21.9
2019-05-14T08:28:00.923Z,21.9
2019-05-14T08:28:51.121Z,21.9
2019-05-14T08:29:41.043Z,21.9
2019-05-14T08:30:31.426Z,21.9
2019-05-14T08:31:21.439Z,21.9
2019-05-14T08:32:11.493Z,21.9
2019-05-14T08:33:01.303Z,21.9
2019-05-14T08:33:51.658Z,21.9
2019-05-14T08:34:41.681Z,21.9
2019-05-14T08:35:35.940Z,21.9
2019-05-14T08:36:21.275Z,21.9
2019-05-14T08:37:11.881Z,21.9
2019-05-14T08:38:12.665Z,21.9
2019-05-14T08:38:51.445Z,21.9
2019-05-14T08:39:42.253Z,22
2019-05-14T08:40:31.850Z,22
2019-05-14T08:41:22.204Z,21.9
2019-05-14T08:42:12.232Z,21.9
2019-05-14T08:43:02.307Z,22
2019-05-14T08:43:52.415Z,21.9
2019-05-14T08:44:42.145Z,21.9
2019-05-14T08:45:32.487Z,22
2019-05-14T08:46:22.371Z,21.9
2019-05-14T08:47:12.350Z,22
2019-05-14T08:48:02.675Z,22
2019-05-14T08:48:52.738Z,22
2019-05-14T08:49:51.272Z,22
2019-05-14T08:50:32.852Z,22
2019-05-14T08:51:22.927Z,22
2019-05-14T08:52:18.962Z,22
2019-05-14T08:53:03.042Z,21.9
2019-05-14T08:53:53.163Z,22
2019-05-14T08:54:43.162Z,22
2019-05-14T08:55:33.237Z,22
2019-05-14T08:56:23.287Z,22
2019-05-14T08:57:13.721Z,22
2019-05-14T08:58:03.529Z,22
2019-05-14T08:58:53.189Z,22
2019-05-14T08:59:43.609Z,22
2019-05-14T09:00:33.591Z,22
2019-05-14T09:01:23.673Z,22
2019-05-14T09:02:13.726Z,22
2019-05-14T09:03:04.040Z,22
2019-05-14T09:03:53.839Z,22
2019-05-14T09:04:44.922Z,22
2019-05-14T09:05:33.956Z,22
2019-05-14T09:06:23.747Z,22
2019-05-14T09:07:14.091Z,22
2019-05-14T09:08:04.174Z,22
2019-05-14T09:08:54.219Z,22
2019-05-14T09:09:44.319Z,22
2019-05-14T09:10:34.328Z,22
2019-05-14T09:11:38.146Z,22
2019-05-14T09:13:04.243Z,22
2019-05-14T09:13:54.584Z,22
2019-05-14T09:14:44.646Z,22
2019-05-14T09:15:34.701Z,22
2019-05-14T09:16:50.958Z,22
2019-05-14T09:18:05.134Z,22
2019-05-14T09:18:54.400Z,22
2019-05-14T09:20:10.545Z,22
2019-05-14T09:21:24.853Z,22
2019-05-14T09:22:15.215Z,22
2019-05-14T09:23:05.265Z,22
2019-05-14T09:23:55.350Z,22
2019-05-14T09:24:45.390Z,22
2019-05-14T09:25:35.517Z,22
2019-05-14T09:26:25.497Z,22
2019-05-14T09:27:15.557Z,22
2019-05-14T09:28:05.345Z,22
2019-05-14T09:28:55.717Z,22
2019-05-14T09:29:48.261Z,22
2019-05-14T09:30:37.958Z,22
2019-05-14T09:31:25.589Z,22
2019-05-14T09:32:18.546Z,22
2019-05-14T09:33:09.126Z,22
2019-05-14T09:33:58.307Z,22
2019-05-14T09:34:49.096Z,22
2019-05-14T09:35:39.035Z,22
2019-05-14T09:36:29.265Z,22
2019-05-14T09:37:18.918Z,22
2019-05-14T09:38:09.152Z,22
2019-05-14T09:38:58.812Z,22
2019-05-14T09:39:48.643Z,22.1
2019-05-14T09:40:39.344Z,22
2019-05-14T09:41:31.513Z,22
2019-05-14T09:42:19.941Z,22
2019-05-14T09:43:09.687Z,22
2019-05-14T09:43:59.222Z,22
2019-05-14T09:44:49.537Z,22.1
2019-05-14T09:45:39.239Z,22
2019-05-14T09:46:29.381Z,22
2019-05-14T09:47:19.361Z,22.1
2019-05-14T09:48:09.847Z,22
2019-05-14T09:48:59.341Z,22
2019-05-14T09:49:49.726Z,22
2019-05-14T09:50:39.147Z,22.1
2019-05-14T09:51:29.200Z,22.1
2019-05-14T09:52:19.418Z,22.1
2019-05-14T09:53:10.652Z,22
2019-05-14T09:53:59.889Z,22.1
2019-05-14T09:54:49.825Z,22
2019-05-14T09:55:39.594Z,22.1
2019-05-14T09:56:30.164Z,22.1
2019-05-14T09:57:19.978Z,22.1
2019-05-14T09:58:08.956Z,22.1
2019-05-14T09:58:59.470Z,22.1
2019-05-14T09:59:49.017Z,22
2019-05-14T10:00:40.091Z,22.1
2019-05-14T10:01:28.138Z,22
2019-05-14T10:02:18.167Z,22
2019-05-14T10:03:10.495Z,22.1
2019-05-14T10:05:28.795Z,22.1
2019-05-14T10:06:21.823Z,22
2019-05-14T10:07:09.855Z,22
2019-05-14T10:08:00.452Z,22
2019-05-14T10:08:49.670Z,22
2019-05-14T10:09:40.258Z,22
2019-05-14T10:10:31.566Z,22.1
2019-05-14T10:11:18.941Z,22.1
2019-05-14T10:12:09.814Z,22.1
2019-05-14T10:13:02.703Z,22
2019-05-14T10:13:49.400Z,22
2019-05-14T10:14:40.207Z,22.1
2019-05-14T10:15:29.802Z,22
2019-05-14T10:16:19.937Z,22.1
2019-05-14T10:17:09.938Z,22.1
2019-05-14T10:18:01.185Z,22
2019-05-14T10:18:53.815Z,22.1
2019-05-14T10:19:40.373Z,22
2019-05-14T10:20:49.215Z,22.1
2019-05-14T10:21:20.303Z,22.1
2019-05-14T10:22:10.037Z,22
2019-05-14T10:23:00.104Z,22
2019-05-14T10:23:50.452Z,22.1
2019-05-14T10:24:40.490Z,22.1
2019-05-14T10:25:30.557Z,22
2019-05-14T10:26:20.388Z,22.1
2019-05-14T10:27:10.669Z,22.1
2019-05-14T10:28:00.744Z,22.1
2019-05-14T10:28:50.801Z,22.1
2019-05-14T10:29:40.846Z,22.1
2019-05-14T10:30:30.925Z,22.1
2019-05-14T10:31:20.977Z,22.1
2019-05-14T10:32:10.774Z,22
2019-05-14T10:33:17.915Z,22
2019-05-14T10:33:50.624Z,22.1
2019-05-14T10:34:40.956Z,22.1
2019-05-14T10:35:31.294Z,22.1
2019-05-14T10:36:21.387Z,22.1
2019-05-14T10:37:11.417Z,22.1
2019-05-14T10:38:01.228Z,22.1
2019-05-14T10:38:51.590Z,22.1
2019-05-14T10:39:41.599Z,22.1
2019-05-14T10:40:31.686Z,22.1
2019-05-14T10:41:21.725Z,22.1
2019-05-14T10:42:11.873Z,22.1
2019-05-14T10:43:01.880Z,22
2019-05-14T10:43:51.948Z,22.1
2019-05-14T10:44:41.703Z,22.1
2019-05-14T10:45:31.488Z,22.1
2019-05-14T10:46:22.103Z,22.1
2019-05-14T10:47:12.168Z,22.1
2019-05-14T10:48:02.239Z,22.1
2019-05-14T10:48:52.293Z,22.1
2019-05-14T10:50:32.405Z,22
2019-05-14T10:52:12.245Z,22.1
2019-05-14T10:53:02.603Z,22.1
2019-05-14T10:53:52.667Z,22.1
2019-05-14T10:54:59.284Z,22.1
2019-05-14T10:55:32.778Z,22.1
2019-05-14T10:56:22.570Z,22.1
2019-05-14T10:57:12.918Z,22.1
2019-05-14T10:58:03.021Z,22.1
2019-05-14T10:58:53.020Z,22.1
2019-05-14T10:59:43.118Z,22.1
2019-05-14T11:00:32.879Z,22.1
2019-05-14T11:01:23.995Z,22.1
2019-05-14T11:02:13.295Z,22.1
2019-05-14T11:03:03.334Z,22.1
2019-05-14T11:03:53.404Z,22.1
2019-05-14T11:04:43.471Z,22.1
2019-05-14T11:05:33.519Z,22.1
2019-05-14T11:06:23.584Z,22.1
2019-05-14T11:07:13.357Z,22.1
2019-05-14T11:08:03.429Z,22.1
2019-05-14T11:08:53.781Z,22.1
2019-05-14T11:09:43.832Z,22.1
2019-05-14T11:10:33.957Z,22.1
2019-05-14T11:11:23.957Z,22.1
2019-05-14T11:12:14.061Z,22.1
2019-05-14T11:13:04.082Z,22.1
2019-05-14T11:13:54.134Z,22.1
2019-05-14T11:14:43.931Z,22.1
2019-05-14T11:15:34.306Z,22.1
2019-05-14T11:16:24.326Z,22.1
2019-05-14T11:17:14.398Z,22.1
2019-05-14T11:18:04.163Z,22.1
2019-05-14T11:18:58.239Z,22.1
2019-05-14T11:19:44.573Z,22.1
2019-05-14T11:20:34.649Z,22.1
2019-05-14T11:21:30.839Z,22.1
2019-05-14T11:22:14.495Z,22.1
2019-05-14T11:23:04.826Z,22.1
2019-05-14T11:23:54.888Z,22.1
2019-05-14T11:24:44.701Z,22
2019-05-14T11:25:34.736Z,22.1
2019-05-14T11:26:25.754Z,22.1
2019-05-14T11:27:14.862Z,22.1
2019-05-14T11:28:05.199Z,22.1
2019-05-14T11:28:54.708Z,22.1
2019-05-14T11:29:45.038Z,22.1
2019-05-14T11:30:35.383Z,22.1
2019-05-14T11:31:25.443Z,22.1
2019-05-14T11:32:18.156Z,22.1
2019-05-14T11:33:05.291Z,22.1
2019-05-14T11:33:55.632Z,22.1